createdAt,value
2023-04-18T00:01:55.690Z,17.60
2023-04-18T00:04:41.872Z,13.50
2023-04-18T00:07:31.270Z,12.10
2023-04-18T00:10:16.841Z,15.80
2023-04-18T00:13:03.662Z,16.90
2023-04-18T00:15:49.266Z,15.60
2023-04-18T00:18:37.180Z,16.80
2023-04-18T00:21:25.222Z,17.20
2023-04-18T00:24:11.462Z,15.00
2023-04-18T00:26:56.789Z,12.40
2023-04-18T00:29:42.405Z,14.00
2023-04-18T00:32:28.172Z,18.60
2023-04-18T00:35:13.552Z,16.40
2023-04-18T00:37:59.316Z,14.90
2023-04-18T00:40:44.598Z,17.50
2023-04-18T00:43:32.226Z,14.30
2023-04-18T00:46:17.729Z,14.70
2023-04-18T00:49:25.407Z,15.00
2023-04-18T00:52:15.293Z,16.70
2023-04-18T00:55:03.579Z,16.00
2023-04-18T00:57:51.165Z,17.30
2023-04-18T01:00:37.259Z,19.00
2023-04-18T01:03:24.440Z,14.90
2023-04-18T01:06:10.869Z,17.50
2023-04-18T01:08:58.202Z,18.90
2023-04-18T01:11:43.158Z,17.60
2023-04-18T01:14:28.330Z,18.80
2023-04-18T01:17:13.202Z,19.60
2023-04-18T01:20:01.578Z,16.90
2023-04-18T01:22:47.400Z,14.00
2023-04-18T01:25:34.549Z,16.40
2023-04-18T01:28:24.189Z,15.90
2023-04-18T01:31:10.085Z,17.20
2023-04-18T01:33:55.699Z,19.40
2023-04-18T01:36:41.391Z,15.10
2023-04-18T01:39:28.421Z,13.70
2023-04-18T01:42:13.774Z,16.40
2023-04-18T01:44:59.612Z,21.00
2023-04-18T01:47:45.776Z,19.70
2023-04-18T01:50:31.174Z,15.60
2023-04-18T01:53:17.706Z,19.10
2023-04-18T01:56:02.955Z,15.60
2023-04-18T01:58:48.297Z,13.60
2023-04-18T02:01:34.180Z,14.40
2023-04-18T02:04:19.916Z,17.00
2023-04-18T02:07:05.642Z,15.10
2023-04-18T02:09:50.899Z,15.60
2023-04-18T02:12:36.494Z,15.80
2023-04-18T02:15:24.341Z,12.20
2023-04-18T02:21:12.948Z,13.90
2023-04-18T02:23:59.058Z,14.70
2023-04-18T02:26:44.749Z,13.30
2023-04-18T02:30:00.572Z,13.80
2023-04-18T02:32:46.307Z,15.30
2023-04-18T02:35:32.158Z,12.00
2023-04-18T02:38:17.126Z,11.40
2023-04-18T02:41:02.505Z,12.30
2023-04-18T02:43:48.600Z,13.70
2023-04-18T02:46:42.026Z,15.50
2023-04-18T02:49:27.435Z,14.50
2023-04-18T02:52:12.503Z,13.90
2023-04-18T02:54:57.776Z,11.60
2023-04-18T02:57:43.161Z,12.90
2023-04-18T03:00:28.842Z,14.40
2023-04-18T03:03:14.156Z,15.20
2023-04-18T03:05:59.897Z,16.70
2023-04-18T03:08:45.477Z,14.20
2023-04-18T03:11:30.869Z,12.70
2023-04-18T03:14:16.343Z,11.60
2023-04-18T03:17:02.112Z,15.70
2023-04-18T03:19:51.806Z,14.40
2023-04-18T03:25:53.278Z,12.20
2023-04-18T03:28:39.112Z,12.10
2023-04-18T03:31:24.589Z,12.50
2023-04-18T03:34:10.466Z,14.40
2023-04-18T03:36:56.246Z,14.10
2023-04-18T03:39:41.917Z,15.80
2023-04-18T03:42:27.507Z,12.80
2023-04-18T03:45:13.091Z,12.10
2023-04-18T03:47:58.909Z,13.50
2023-04-18T03:50:44.650Z,13.30
2023-04-18T03:53:30.480Z,14.60
2023-04-18T03:56:16.130Z,15.10
2023-04-18T03:59:01.496Z,15.20
2023-04-18T04:01:47.123Z,14.00
2023-04-18T04:04:33.024Z,13.50
2023-04-18T04:07:19.002Z,12.20
2023-04-18T04:10:10.591Z,13.30
2023-04-18T04:12:56.063Z,16.40
2023-04-18T04:15:41.253Z,16.60
2023-04-18T04:18:31.096Z,14.90
2023-04-18T04:21:17.629Z,12.80
2023-04-18T04:24:07.126Z,15.00
2023-04-18T04:26:59.121Z,16.10
2023-04-18T04:29:44.409Z,15.70
2023-04-18T04:32:29.812Z,17.10
2023-04-18T04:35:15.886Z,20.10
2023-04-18T04:38:01.341Z,17.50
2023-04-18T04:40:46.937Z,16.40
2023-04-18T04:43:35.894Z,13.20
2023-04-18T04:46:23.012Z,19.00
2023-04-18T04:49:09.208Z,19.60
2023-04-18T04:51:54.588Z,18.50
2023-04-18T04:54:40.344Z,18.50
2023-04-18T04:57:26.067Z,17.50
2023-04-18T05:00:15.939Z,18.10
2023-04-18T05:03:02.455Z,15.30
2023-04-18T05:05:48.542Z,17.10
2023-04-18T05:08:37.515Z,23.60
2023-04-18T05:11:23.488Z,19.20
2023-04-18T05:14:09.283Z,17.70
2023-04-18T05:16:56.366Z,17.90
2023-04-18T05:19:44.284Z,18.90
2023-04-18T05:22:30.799Z,15.30
2023-04-18T05:25:16.429Z,18.50
2023-04-18T05:28:04.563Z,15.30
2023-04-18T05:34:06.312Z,17.90
2023-04-18T05:36:52.302Z,16.70
2023-04-18T05:39:38.164Z,13.50
2023-04-18T05:42:23.606Z,14.50
2023-04-18T05:45:11.770Z,17.80
2023-04-18T05:47:57.471Z,17.60
2023-04-18T05:50:43.119Z,16.00
2023-04-18T05:53:28.901Z,18.90
2023-04-18T05:56:14.688Z,17.60
2023-04-18T05:59:00.372Z,15.50
2023-04-18T06:01:46.160Z,13.30
2023-04-18T06:04:31.509Z,16.40
2023-04-18T06:07:18.241Z,17.10
2023-04-18T06:10:09.110Z,17.50
2023-04-18T06:12:54.727Z,16.50
2023-04-18T06:15:40.798Z,18.80
2023-04-18T06:18:26.112Z,14.80
2023-04-18T06:21:13.032Z,14.60
2023-04-18T06:23:58.507Z,14.90
2023-04-18T06:26:43.978Z,15.20
2023-04-18T06:29:33.262Z,15.00
2023-04-18T06:32:18.653Z,17.30
2023-04-18T06:35:05.330Z,16.90
2023-04-18T06:37:52.551Z,14.40
2023-04-18T06:40:38.030Z,13.50
2023-04-18T06:43:23.810Z,15.00
2023-04-18T06:46:09.407Z,15.80
2023-04-18T06:48:55.082Z,19.10
2023-04-18T06:51:40.932Z,15.80
2023-04-18T06:54:27.060Z,17.70
2023-04-18T06:57:15.026Z,12.70
2023-04-18T07:00:00.481Z,13.70
2023-04-18T07:02:49.696Z,12.80
2023-04-18T07:05:37.780Z,14.40
2023-04-18T07:08:23.363Z,15.80
2023-04-18T07:11:09.050Z,16.00
2023-04-18T07:13:55.254Z,19.20
2023-04-18T07:16:40.770Z,18.00
2023-04-18T07:19:26.536Z,15.10
2023-04-18T07:22:12.061Z,19.20
2023-04-18T07:25:00.735Z,15.80
2023-04-18T07:27:47.568Z,17.40
2023-04-18T07:30:41.874Z,20.20
2023-04-18T07:33:36.909Z,15.30
2023-04-18T07:36:22.740Z,17.20
2023-04-18T07:39:11.744Z,16.20
2023-04-18T07:41:57.480Z,13.70
2023-04-18T07:44:44.190Z,14.70
2023-04-18T07:47:30.645Z,13.30
2023-04-18T07:50:17.501Z,12.00
2023-04-18T07:53:03.101Z,10.40
2023-04-18T07:55:51.785Z,10.80
2023-04-18T08:01:48.162Z,9.90
2023-04-18T08:04:33.930Z,10.30
2023-04-18T08:07:19.670Z,8.40
2023-04-18T08:10:07.263Z,10.30
2023-04-18T08:12:53.288Z,8.40
2023-04-18T08:15:43.201Z,9.60
2023-04-18T08:18:29.688Z,10.80
2023-04-18T08:21:15.281Z,11.10
2023-04-18T08:24:00.840Z,10.90
2023-04-18T08:26:46.173Z,9.20
2023-04-18T08:29:31.760Z,9.50
2023-04-18T08:32:17.047Z,8.30
2023-04-18T08:35:05.390Z,9.70
2023-04-18T08:37:50.865Z,10.50
2023-04-18T08:40:37.954Z,10.50
2023-04-18T08:43:26.633Z,8.50
2023-04-18T08:46:11.805Z,9.10
2023-04-18T08:48:59.943Z,11.60
2023-04-18T08:51:58.639Z,11.40
2023-04-18T08:54:48.489Z,12.10
2023-04-18T08:57:35.894Z,10.60
2023-04-18T09:00:30.582Z,12.80
2023-04-18T09:03:16.063Z,8.80
2023-04-18T09:06:18.518Z,9.50
2023-04-18T09:09:04.908Z,11.00
2023-04-18T09:11:55.384Z,11.90
2023-04-18T09:14:46.190Z,11.00
2023-04-18T09:17:50.114Z,14.20
2023-04-18T09:20:42.080Z,9.50
2023-04-18T09:23:27.313Z,11.90
2023-04-18T09:26:13.482Z,12.70
2023-04-18T09:28:58.615Z,11.20
2023-04-18T09:32:02.130Z,14.10
2023-04-18T09:34:47.419Z,13.10
2023-04-18T09:37:33.808Z,12.40
2023-04-18T09:40:20.287Z,14.00
2023-04-18T09:43:21.290Z,13.40
2023-04-18T09:46:12.125Z,15.30
2023-04-18T09:48:57.662Z,13.20
2023-04-18T09:51:45.617Z,14.10
2023-04-18T09:54:37.806Z,15.30
2023-04-18T09:57:31.451Z,13.50
2023-04-18T10:00:30.665Z,14.60
2023-04-18T10:03:17.934Z,13.00
2023-04-18T10:06:03.974Z,12.10
2023-04-18T10:09:13.022Z,13.40
2023-04-18T10:12:02.260Z,13.40
2023-04-18T10:14:49.686Z,13.20
2023-04-18T10:18:03.468Z,11.60
2023-04-18T10:20:54.543Z,13.40
2023-04-18T10:23:40.434Z,15.40
2023-04-18T10:26:49.790Z,13.40
2023-04-18T10:55:39.408Z,20.20
2023-04-18T10:58:25.936Z,17.40
2023-04-18T11:01:21.929Z,16.50
2023-04-18T11:04:13.149Z,14.70
2023-04-18T11:07:07.302Z,16.00
2023-04-18T11:19:26.242Z,15.20
2023-04-18T11:22:14.901Z,14.90
2023-04-18T11:25:07.948Z,13.50
2023-04-18T11:28:28.084Z,14.90
2023-04-18T11:31:15.771Z,13.30
2023-04-18T11:34:02.181Z,13.00
2023-04-18T11:36:51.957Z,15.20
2023-04-18T11:39:42.966Z,17.90
2023-04-18T11:42:35.511Z,14.50
2023-04-18T11:45:21.297Z,16.30
2023-04-18T11:48:06.713Z,13.50
2023-04-18T11:50:52.450Z,14.50
2023-04-18T11:53:40.282Z,15.40
2023-04-18T11:56:25.767Z,18.80
2023-04-18T11:59:11.456Z,16.20
2023-04-18T12:02:14.674Z,17.80
2023-04-18T12:05:02.608Z,17.40
2023-04-18T12:07:48.915Z,19.70
2023-04-18T12:10:35.901Z,17.50
2023-04-18T12:13:27.400Z,18.50
2023-04-18T12:16:12.630Z,16.60
2023-04-18T12:19:08.821Z,19.60
2023-04-18T12:22:00.236Z,18.50
2023-04-18T12:24:49.806Z,22.20
2023-04-18T12:27:49.011Z,19.50
2023-04-18T12:30:36.795Z,19.80
2023-04-18T12:33:23.560Z,17.00
2023-04-18T12:36:12.513Z,18.70
2023-04-18T12:38:58.299Z,16.40
2023-04-18T12:41:43.683Z,18.30
2023-04-18T12:44:29.283Z,15.30
2023-04-18T12:47:15.038Z,21.30
2023-04-18T12:50:00.924Z,14.40
2023-04-18T12:52:47.333Z,19.70
2023-04-18T12:55:32.497Z,18.80
2023-04-18T12:58:22.369Z,17.60
2023-04-18T13:01:10.840Z,16.00
2023-04-18T13:04:08.238Z,16.30
2023-04-18T13:07:15.695Z,15.40
2023-04-18T13:10:01.219Z,18.60
2023-04-18T13:12:47.053Z,14.50
2023-04-18T13:15:32.665Z,14.80
2023-04-18T13:18:18.460Z,14.10
2023-04-18T13:21:10.597Z,14.30
2023-04-18T13:27:20.110Z,14.30
2023-04-18T13:30:11.175Z,20.30
2023-04-18T13:32:59.179Z,16.80
2023-04-18T13:35:45.300Z,16.50
2023-04-18T13:38:30.983Z,16.80
2023-04-18T13:41:44.576Z,16.20
2023-04-18T13:44:30.923Z,17.70
2023-04-18T13:47:16.399Z,17.00
2023-04-18T13:50:02.043Z,15.10
2023-04-18T13:52:48.952Z,17.90
2023-04-18T13:55:34.842Z,20.60
2023-04-18T13:58:20.637Z,19.10
2023-04-18T14:01:05.918Z,22.40
2023-04-18T14:03:51.873Z,22.30
2023-04-18T14:06:43.664Z,21.70
2023-04-18T14:09:29.917Z,22.70
2023-04-18T14:12:51.302Z,23.10
2023-04-18T14:21:51.444Z,20.80
2023-04-18T14:24:37.241Z,21.50
2023-04-18T14:27:26.773Z,21.80
2023-04-18T14:30:16.224Z,18.00
2023-04-18T14:33:01.488Z,20.80
2023-04-18T14:35:47.901Z,17.80
2023-04-18T14:38:33.631Z,18.80
2023-04-18T14:41:19.859Z,18.30
2023-04-18T14:44:05.334Z,17.50
2023-04-18T14:46:51.040Z,19.40
2023-04-18T14:49:36.985Z,16.70
2023-04-18T14:55:38.851Z,17.30
2023-04-18T14:58:27.294Z,14.50
2023-04-18T15:01:12.697Z,19.10
2023-04-18T15:04:00.042Z,17.50
2023-04-18T15:07:09.129Z,16.20
2023-04-18T15:12:58.279Z,14.90
2023-04-18T15:15:53.499Z,16.40
2023-04-18T15:18:38.712Z,13.30
2023-04-18T15:21:23.867Z,15.50
2023-04-18T15:24:09.276Z,17.20
2023-04-18T15:43:20.669Z,19.90
2023-04-18T15:49:02.002Z,17.30
2023-04-18T15:55:02.591Z,17.00
2023-04-18T16:03:55.779Z,16.30
2023-04-18T16:06:41.002Z,13.90
2023-04-18T16:09:26.500Z,19.20
2023-04-18T16:12:11.868Z,19.30
2023-04-18T16:14:56.961Z,16.70
2023-04-18T16:17:41.931Z,16.40
2023-04-18T16:20:27.176Z,16.60
2023-04-18T16:23:12.283Z,20.70
2023-04-18T16:28:59.627Z,20.80
2023-04-18T16:31:44.961Z,17.40
2023-04-18T16:37:23.333Z,20.80
2023-04-18T16:40:09.539Z,19.30
2023-04-18T16:42:54.548Z,19.30
2023-04-18T16:51:21.481Z,20.10
2023-04-18T17:00:02.483Z,22.10
2023-04-18T17:02:48.093Z,20.00
2023-04-18T17:05:33.426Z,21.40
2023-04-18T17:08:19.355Z,20.20
2023-04-18T17:11:04.464Z,20.20
2023-04-18T17:14:39.009Z,18.90
2023-04-18T17:17:24.769Z,21.70
2023-04-18T17:23:40.615Z,22.20
2023-04-18T17:32:53.609Z,21.30
2023-04-18T17:35:41.973Z,23.30
2023-04-18T17:38:27.378Z,20.90
2023-04-18T17:41:12.491Z,19.00
2023-04-18T17:43:57.514Z,20.70
2023-04-18T17:49:33.750Z,21.60
2023-04-18T17:55:13.122Z,26.10
2023-04-18T17:58:00.460Z,27.90
2023-04-18T18:03:53.559Z,21.10
2023-04-18T18:06:39.200Z,20.80
2023-04-18T18:12:48.368Z,22.90
2023-04-18T18:19:01.319Z,24.60
2023-04-18T18:21:46.751Z,19.60
2023-04-18T18:24:31.985Z,22.40
2023-04-18T18:27:19.590Z,21.90
2023-04-18T18:39:06.327Z,23.00
2023-04-18T18:41:51.649Z,20.00
2023-04-18T18:44:37.031Z,23.50
2023-04-18T18:47:22.063Z,20.60
2023-04-18T18:50:07.698Z,21.80
2023-04-18T18:52:53.009Z,19.30
2023-04-18T18:55:38.449Z,20.30
2023-04-18T18:58:24.022Z,20.30
2023-04-18T19:01:36.487Z,24.90
2023-04-18T19:04:22.339Z,21.50
2023-04-18T19:12:55.681Z,22.50
2023-04-18T19:15:40.833Z,20.70
2023-04-18T19:27:26.682Z,21.70
2023-04-18T19:33:09.786Z,19.90
2023-04-18T19:35:55.759Z,23.40
2023-04-18T19:38:41.094Z,19.90
2023-04-18T19:41:27.790Z,19.00
2023-04-18T19:44:12.775Z,20.70
2023-04-18T19:46:58.087Z,20.10
2023-04-18T19:56:55.164Z,20.80
2023-04-18T20:02:34.699Z,20.80
2023-04-18T20:05:20.406Z,19.70
2023-04-18T20:29:47.999Z,16.40
2023-04-18T20:32:34.071Z,19.10
2023-04-18T20:35:19.530Z,17.20
2023-04-18T20:38:06.580Z,19.70
2023-04-18T20:46:35.410Z,19.10
2023-04-18T20:53:11.381Z,18.90
2023-04-18T20:55:56.488Z,19.60
2023-04-18T21:08:03.767Z,16.80
2023-04-18T21:10:49.167Z,19.00
2023-04-18T21:13:34.470Z,19.90
2023-04-18T21:16:20.616Z,16.00
2023-04-18T21:28:30.433Z,18.80
2023-04-18T21:34:31.399Z,20.50
2023-04-18T22:11:38.169Z,19.80
2023-04-18T22:20:41.509Z,18.00
2023-04-18T22:23:27.216Z,18.80
2023-04-18T22:37:57.815Z,16.30
2023-04-18T22:40:43.125Z,18.40
2023-04-18T22:43:28.326Z,17.80
2023-04-18T22:52:24.178Z,16.00
2023-04-18T23:04:41.606Z,16.50
2023-04-18T23:11:10.650Z,13.80
2023-04-18T23:16:56.821Z,15.30
2023-04-18T23:19:42.254Z,14.90
2023-04-18T23:22:27.780Z,14.40
2023-04-18T23:31:56.244Z,14.40
2023-04-18T23:44:27.048Z,13.50
2023-04-18T23:56:29.465Z,14.80
